Terminal Aerodrome Forecast
Issued by NWS

Home | Current Version | Previous Version | Text Only | Print | Product List | Glossary On
Versions: 1 2 3 4 5 6 7 8 9 10 11 12 13
000
FTUS44 KLZK 241132
TAFADF
TAF
KADF 241132Z 2412/2512 28005KT P6SM FEW100 SCT250
     FM241700 30008G16KT P6SM BKN050
     FM250100 VRB03KT P6SM FEW250=

USA.gov is the U.S. government's official web portal to all federal, state and local government web resources and services.